createdAt,value
2019-05-12T00:02:13.067Z,9.10
2019-05-12T00:04:48.852Z,9.10
2019-05-12T00:07:21.091Z,9.10
2019-05-12T00:09:54.656Z,9.20
2019-05-12T00:12:28.181Z,9.20
2019-05-12T00:15:01.917Z,9.20
2019-05-12T00:17:35.599Z,9.10
2019-05-12T00:20:10.265Z,9.00
2019-05-12T00:22:45.861Z,9.00
2019-05-12T00:25:19.397Z,9.00
2019-05-12T00:27:53.822Z,9.00
2019-05-12T00:30:30.980Z,9.00
2019-05-12T00:33:05.418Z,8.90
2019-05-12T00:35:39.088Z,8.80
2019-05-12T00:38:12.784Z,8.90
2019-05-12T00:40:47.895Z,8.90
2019-05-12T00:43:20.597Z,9.00
2019-05-12T00:45:54.959Z,9.00
2019-05-12T00:48:28.725Z,9.00
2019-05-12T00:51:02.339Z,9.10
2019-05-12T00:53:40.098Z,9.10
2019-05-12T00:56:10.478Z,9.30
2019-05-12T00:58:44.335Z,9.20
2019-05-12T01:01:18.436Z,9.30
2019-05-12T01:03:52.141Z,9.20
2019-05-12T01:06:27.688Z,9.20
2019-05-12T01:09:00.107Z,9.20
2019-05-12T01:11:33.840Z,9.20
2019-05-12T01:14:08.778Z,9.30
2019-05-12T01:16:42.068Z,9.30
2019-05-12T01:19:18.349Z,9.30
2019-05-12T01:21:50.296Z,9.40
2019-05-12T01:24:24.144Z,9.30
2019-05-12T01:26:58.324Z,9.30
2019-05-12T01:29:31.421Z,9.20
2019-05-12T01:32:07.863Z,9.20
2019-05-12T01:34:40.168Z,9.20
2019-05-12T01:37:19.835Z,9.10
2019-05-12T01:39:53.611Z,9.20
2019-05-12T01:42:28.734Z,9.20
2019-05-12T01:45:00.731Z,9.10
2019-05-12T01:47:34.404Z,9.20
2019-05-12T01:50:09.184Z,9.20
2019-05-12T01:52:41.722Z,9.30
2019-05-12T01:55:15.290Z,9.30
2019-05-12T01:57:48.851Z,9.20
2019-05-12T02:00:23.273Z,9.20
2019-05-12T02:02:58.460Z,9.20
2019-05-12T02:05:31.324Z,9.20
2019-05-12T02:08:05.852Z,9.10
2019-05-12T02:10:39.443Z,9.10
2019-05-12T02:13:13.084Z,9.10
2019-05-12T02:15:48.563Z,9.10
2019-05-12T02:18:20.429Z,9.10
2019-05-12T02:20:54.287Z,9.20
2019-05-12T02:23:28.203Z,9.20
2019-05-12T02:26:01.639Z,9.10
2019-05-12T02:28:35.215Z,9.10
2019-05-12T02:31:09.742Z,9.00
2019-05-12T02:33:44.598Z,9.00
2019-05-12T02:36:17.040Z,8.90
2019-05-12T02:38:51.363Z,8.90
2019-05-12T02:41:25.899Z,8.80
2019-05-12T02:43:58.697Z,8.80
2019-05-12T02:46:34.842Z,8.80
2019-05-12T02:49:05.810Z,8.70
2019-05-12T02:51:39.567Z,8.80
2019-05-12T02:54:14.359Z,8.80
2019-05-12T02:56:46.758Z,8.80
2019-05-12T02:59:20.320Z,8.70
2019-05-12T03:01:55.079Z,8.70
2019-05-12T03:04:27.437Z,8.70
2019-05-12T03:07:05.426Z,8.60
2019-05-12T03:09:35.367Z,8.60
2019-05-12T03:12:08.436Z,8.50
2019-05-12T03:14:44.747Z,8.60
2019-05-12T03:17:16.716Z,8.50
2019-05-12T03:19:51.082Z,8.50
2019-05-12T03:22:25.635Z,8.60
2019-05-12T03:25:14.711Z,8.60
2019-05-12T03:27:35.079Z,8.60
2019-05-12T03:30:11.483Z,8.50
2019-05-12T03:32:40.528Z,8.40
2019-05-12T03:35:17.576Z,8.40
2019-05-12T03:37:47.978Z,8.40
2019-05-12T03:40:24.667Z,8.40
2019-05-12T03:42:55.080Z,8.50
2019-05-12T03:45:29.595Z,8.40
2019-05-12T03:48:04.265Z,8.40
2019-05-12T03:50:36.775Z,8.40
2019-05-12T03:53:11.280Z,8.40
2019-05-12T03:55:46.800Z,8.30
2019-05-12T03:58:18.503Z,8.30
2019-05-12T04:00:55.347Z,8.30
2019-05-12T04:03:26.538Z,8.20
2019-05-12T04:06:00.308Z,8.20
2019-05-12T04:08:34.815Z,8.30
2019-05-12T04:11:07.593Z,8.30
2019-05-12T04:13:41.253Z,8.40
2019-05-12T04:16:16.326Z,8.40
2019-05-12T04:18:49.233Z,8.50
2019-05-12T04:21:24.385Z,8.50
2019-05-12T04:23:57.620Z,8.30
2019-05-12T04:26:31.420Z,8.30
2019-05-12T04:29:05.339Z,8.30
2019-05-12T04:31:38.551Z,8.30
2019-05-12T04:34:17.941Z,8.30
2019-05-12T04:36:45.991Z,8.20
2019-05-12T04:39:19.727Z,8.30
2019-05-12T04:41:55.141Z,8.30
2019-05-12T04:44:26.940Z,8.20
2019-05-12T04:47:00.580Z,8.30
2019-05-12T04:49:34.716Z,8.40
2019-05-12T04:52:07.926Z,8.30
2019-05-12T04:54:44.314Z,8.30
2019-05-12T04:57:15.153Z,8.30
2019-05-12T04:59:48.842Z,8.30
2019-05-12T05:02:25.098Z,8.30
2019-05-12T05:04:56.118Z,8.30
2019-05-12T05:07:30.445Z,8.40
2019-05-12T05:10:05.168Z,8.40
2019-05-12T05:12:38.768Z,8.50
2019-05-12T05:15:14.690Z,8.40
2019-05-12T05:17:46.096Z,8.40
2019-05-12T05:20:19.687Z,8.50
2019-05-12T05:22:54.314Z,8.50
2019-05-12T05:25:27.800Z,8.50
2019-05-12T05:28:03.711Z,8.60
2019-05-12T05:30:36.619Z,8.50
2019-05-12T05:33:10.243Z,8.50
2019-05-12T05:35:43.826Z,8.40
2019-05-12T05:38:20.745Z,8.30
2019-05-12T05:40:51.118Z,8.40
2019-05-12T05:43:24.691Z,8.50
2019-05-12T05:46:02.600Z,8.40
2019-05-12T05:48:35.193Z,8.40
2019-05-12T05:51:09.065Z,8.40
2019-05-12T05:53:40.269Z,8.50
2019-05-12T05:56:15.436Z,8.50
2019-05-12T05:58:51.811Z,8.60
2019-05-12T06:01:24.263Z,8.60
2019-05-12T06:03:58.411Z,8.60
2019-05-12T06:06:29.206Z,8.50
2019-05-12T06:09:03.697Z,8.30
2019-05-12T06:11:37.239Z,8.40
2019-05-12T06:14:12.785Z,8.40
2019-05-12T06:16:44.672Z,8.40
2019-05-12T06:19:18.261Z,8.40
2019-05-12T06:21:53.398Z,8.50
2019-05-12T06:24:25.882Z,8.60
2019-05-12T06:27:00.801Z,8.60
2019-05-12T06:29:33.390Z,8.60
2019-05-12T06:32:10.808Z,8.60
2019-05-12T06:34:40.451Z,8.50
2019-05-12T06:37:16.981Z,8.50
2019-05-12T06:39:50.983Z,8.60
2019-05-12T06:42:24.080Z,8.60
2019-05-12T06:44:58.152Z,8.60
2019-05-12T06:47:28.919Z,8.60
2019-05-12T06:50:03.957Z,8.70
2019-05-12T06:52:38.565Z,8.70
2019-05-12T06:55:09.793Z,8.80
2019-05-12T06:57:45.868Z,8.80
2019-05-12T07:00:22.259Z,8.80
2019-05-12T07:02:53.127Z,8.80
2019-05-12T07:05:28.162Z,8.80
2019-05-12T07:07:58.828Z,9.00
2019-05-12T07:10:42.643Z,9.20
2019-05-12T07:13:06.257Z,9.40
2019-05-12T07:15:40.673Z,9.50
2019-05-12T07:18:17.649Z,9.90
2019-05-12T07:20:49.463Z,9.90
2019-05-12T07:23:26.025Z,10.50
2019-05-12T07:25:57.767Z,10.40
2019-05-12T07:28:36.257Z,10.40
2019-05-12T07:31:05.221Z,10.30
2019-05-12T07:33:45.673Z,10.40
2019-05-12T07:36:13.776Z,10.40
2019-05-12T07:38:47.276Z,10.20
2019-05-12T07:41:23.553Z,10.10
2019-05-12T07:43:56.693Z,10.30
2019-05-12T07:46:28.603Z,10.70
2019-05-12T07:49:03.866Z,11.00
2019-05-12T07:51:40.494Z,11.00
2019-05-12T07:54:09.739Z,11.00
2019-05-12T07:56:44.411Z,11.20
2019-05-12T07:59:18.015Z,11.20
2019-05-12T08:01:54.865Z,10.80
2019-05-12T08:04:31.604Z,10.60
2019-05-12T08:07:01.120Z,10.90
2019-05-12T08:09:36.394Z,10.90
2019-05-12T08:12:09.713Z,11.30
2019-05-12T08:14:43.962Z,11.50
2019-05-12T08:17:19.669Z,11.20
2019-05-12T08:19:50.853Z,11.20
2019-05-12T08:22:29.181Z,11.30
2019-05-12T08:24:58.380Z,11.30
2019-05-12T08:27:34.049Z,11.20
2019-05-12T08:30:06.474Z,11.10
2019-05-12T08:32:40.261Z,10.90
2019-05-12T08:35:14.145Z,10.90
2019-05-12T08:37:47.536Z,11.20
2019-05-12T08:40:21.123Z,12.00
2019-05-12T08:42:59.341Z,12.70
2019-05-12T08:45:34.159Z,12.90
2019-05-12T08:48:03.854Z,12.20
2019-05-12T08:50:36.697Z,12.80
2019-05-12T08:53:12.283Z,14.00
2019-05-12T08:55:44.701Z,15.60
2019-05-12T08:58:30.177Z,15.60
2019-05-12T09:00:52.029Z,16.40
2019-05-12T09:03:30.296Z,15.60
2019-05-12T09:05:59.999Z,15.60
2019-05-12T09:08:35.941Z,14.20
2019-05-12T09:11:07.261Z,14.10
2019-05-12T09:13:43.229Z,14.40
2019-05-12T09:16:14.702Z,15.50
2019-05-12T09:18:48.320Z,16.70
2019-05-12T09:21:23.705Z,17.10
2019-05-12T09:23:56.145Z,17.60
2019-05-12T09:26:29.211Z,17.30
2019-05-12T09:29:03.458Z,17.20
2019-05-12T09:31:36.493Z,16.60
2019-05-12T09:34:11.959Z,16.20
2019-05-12T09:36:44.268Z,15.50
2019-05-12T09:39:17.730Z,14.80
2019-05-12T09:41:53.316Z,13.90
2019-05-12T09:44:30.312Z,13.80
2019-05-12T09:46:59.492Z,14.70
2019-05-12T09:49:39.267Z,16.00
2019-05-12T09:52:07.545Z,17.00
2019-05-12T09:54:44.425Z,17.70
2019-05-12T09:57:16.674Z,17.70
2019-05-12T09:59:55.535Z,16.00
2019-05-12T10:02:25.501Z,15.40
2019-05-12T10:05:00.835Z,15.40
2019-05-12T10:07:33.968Z,14.90
2019-05-12T10:10:07.082Z,14.30
2019-05-12T10:12:48.601Z,13.90
2019-05-12T10:15:18.616Z,13.70
2019-05-12T10:17:48.257Z,14.00
2019-05-12T10:20:24.070Z,13.90
2019-05-12T10:22:55.811Z,13.60
2019-05-12T10:25:30.721Z,13.40
2019-05-12T10:28:11.288Z,13.30
2019-05-12T10:30:37.620Z,13.20
2019-05-12T10:33:11.339Z,13.20
2019-05-12T10:35:44.925Z,13.20
2019-05-12T10:38:18.682Z,13.60
2019-05-12T10:40:52.216Z,14.40
2019-05-12T10:43:26.840Z,15.00
2019-05-12T10:46:00.408Z,15.00
2019-05-12T10:48:34.045Z,14.70
2019-05-12T10:51:08.352Z,13.90
2019-05-12T10:53:43.294Z,13.80
2019-05-12T10:56:15.848Z,13.50
2019-05-12T10:58:49.569Z,13.20
2019-05-12T11:01:24.347Z,13.20
2019-05-12T11:03:57.432Z,13.20
2019-05-12T11:06:33.960Z,13.30
2019-05-12T11:09:05.503Z,13.20
2019-05-12T11:11:42.622Z,13.10
2019-05-12T11:14:14.242Z,13.10
2019-05-12T11:16:47.472Z,13.20
2019-05-12T11:19:21.267Z,13.30
2019-05-12T11:21:54.846Z,13.20
2019-05-12T11:24:28.471Z,13.10
2019-05-12T11:27:04.120Z,13.30
2019-05-12T11:29:45.699Z,13.40
2019-05-12T11:32:09.424Z,13.80
2019-05-12T11:34:44.375Z,13.90
2019-05-12T11:37:16.735Z,14.20
2019-05-12T11:39:50.703Z,14.40
2019-05-12T11:42:24.375Z,14.50
2019-05-12T11:44:58.877Z,14.80
2019-05-12T11:47:34.599Z,14.80
2019-05-12T11:50:09.646Z,14.50
2019-05-12T11:52:40.123Z,14.30
2019-05-12T11:55:14.549Z,13.90
2019-05-12T11:57:48.288Z,14.00
2019-05-12T12:00:24.142Z,13.50
2019-05-12T12:02:56.605Z,13.50
2019-05-12T12:05:30.260Z,13.20
2019-05-12T12:08:04.168Z,13.30
2019-05-12T12:10:39.666Z,13.20
2019-05-12T12:13:11.227Z,13.50
2019-05-12T12:15:45.091Z,13.80
2019-05-12T12:18:19.616Z,14.40
2019-05-12T12:20:57.143Z,14.40
2019-05-12T12:23:26.844Z,14.70
2019-05-12T12:26:00.431Z,14.90
2019-05-12T12:28:34.466Z,15.00
2019-05-12T12:31:07.970Z,15.00
2019-05-12T12:33:46.707Z,14.90
2019-05-12T12:36:15.246Z,14.90
2019-05-12T12:38:48.862Z,14.60
2019-05-12T12:41:23.731Z,14.20
2019-05-12T12:43:57.124Z,14.00
2019-05-12T12:46:33.702Z,13.70
2019-05-12T12:49:06.386Z,13.70
2019-05-12T12:51:39.443Z,14.00
2019-05-12T12:54:13.005Z,14.00
2019-05-12T12:56:46.575Z,14.30
2019-05-12T12:59:20.178Z,14.40
2019-05-12T13:01:59.034Z,14.60
2019-05-12T13:04:28.951Z,14.80
2019-05-12T13:07:04.486Z,15.00
2019-05-12T13:09:36.579Z,15.20
2019-05-12T13:12:17.647Z,15.10
2019-05-12T13:14:45.179Z,15.00
2019-05-12T13:17:18.804Z,14.90
2019-05-12T13:19:56.767Z,14.80
2019-05-12T13:22:25.992Z,14.70
2019-05-12T13:25:04.346Z,14.90
2019-05-12T13:27:36.844Z,14.90
2019-05-12T13:30:18.887Z,15.10
2019-05-12T13:32:44.145Z,15.10
2019-05-12T13:35:19.848Z,15.20
2019-05-12T13:37:50.233Z,15.20
2019-05-12T13:40:24.158Z,15.70
2019-05-12T13:42:57.876Z,15.70
2019-05-12T13:45:33.490Z,15.70
2019-05-12T13:48:09.607Z,15.50
2019-05-12T13:50:39.012Z,15.30
2019-05-12T13:53:13.945Z,15.20
2019-05-12T13:55:49.509Z,15.20
2019-05-12T13:58:20.816Z,15.40
2019-05-12T14:01:10.378Z,15.40
2019-05-12T14:03:28.171Z,15.50
2019-05-12T14:06:03.545Z,15.50
2019-05-12T14:08:35.193Z,15.40
2019-05-12T14:11:08.829Z,15.40
2019-05-12T14:13:42.527Z,15.50
2019-05-12T14:16:16.283Z,15.70
2019-05-12T14:18:51.148Z,15.60
2019-05-12T14:21:24.474Z,15.60
2019-05-12T14:23:57.449Z,15.20
2019-05-12T14:26:33.269Z,15.20
2019-05-12T14:29:05.007Z,15.20
2019-05-12T14:31:45.329Z,14.80
2019-05-12T14:34:18.839Z,14.80
2019-05-12T14:36:47.388Z,14.90
2019-05-12T14:39:20.993Z,14.90
2019-05-12T14:41:54.809Z,15.10
2019-05-12T14:44:29.024Z,14.80
2019-05-12T14:47:03.851Z,14.80
2019-05-12T14:49:36.207Z,14.80
2019-05-12T14:52:09.810Z,14.90
2019-05-12T14:54:43.678Z,14.90
2019-05-12T14:57:17.309Z,15.00
2019-05-12T14:59:50.974Z,15.10
2019-05-12T15:02:27.771Z,14.80
2019-05-12T15:05:00.278Z,14.80
2019-05-12T15:07:31.722Z,14.60
2019-05-12T15:10:08.594Z,14.50
2019-05-12T15:12:39.204Z,14.60
2019-05-12T15:15:18.501Z,14.70
2019-05-12T15:17:46.680Z,14.80
2019-05-12T15:20:20.268Z,14.80
2019-05-12T15:22:55.386Z,14.90
2019-05-12T15:25:29.545Z,15.10
2019-05-12T15:28:03.874Z,15.10
2019-05-12T15:30:37.125Z,14.90
2019-05-12T15:33:13.948Z,14.70
2019-05-12T15:35:45.483Z,14.60
2019-05-12T15:38:19.146Z,14.50
2019-05-12T15:40:53.769Z,14.40
2019-05-12T15:43:26.351Z,14.50
2019-05-12T15:45:59.927Z,14.60
2019-05-12T15:48:34.290Z,14.60
2019-05-12T15:51:08.684Z,14.80
2019-05-12T15:53:44.406Z,15.00
2019-05-12T15:56:22.723Z,15.00
2019-05-12T15:58:50.206Z,14.80
2019-05-12T16:01:24.534Z,14.70
2019-05-12T16:03:58.261Z,14.60
2019-05-12T16:06:31.947Z,14.60
2019-05-12T16:09:05.774Z,14.60
2019-05-12T16:11:39.611Z,14.70
2019-05-12T16:14:13.409Z,14.70
2019-05-12T16:16:47.204Z,14.70
2019-05-12T16:19:20.847Z,14.60
2019-05-12T16:21:54.564Z,14.70
2019-05-12T16:24:28.168Z,14.60
2019-05-12T16:27:03.667Z,14.70
2019-05-12T16:29:38.849Z,14.70
2019-05-12T16:32:24.979Z,14.60
2019-05-12T16:34:47.218Z,14.60
2019-05-12T16:37:22.852Z,14.60
2019-05-12T16:39:54.064Z,14.60
2019-05-12T16:42:25.827Z,14.70
2019-05-12T16:45:06.125Z,14.70
2019-05-12T16:47:35.804Z,14.60
2019-05-12T16:50:15.020Z,14.50
2019-05-12T16:52:42.818Z,14.30
2019-05-12T16:55:15.402Z,14.20
2019-05-12T16:57:52.777Z,14.10
2019-05-12T17:00:24.420Z,14.10
2019-05-12T17:02:58.099Z,14.10
2019-05-12T17:05:33.387Z,14.10
2019-05-12T17:08:04.648Z,14.00
2019-05-12T17:10:38.343Z,14.10
2019-05-12T17:13:13.332Z,14.00
2019-05-12T17:15:48.825Z,14.10
2019-05-12T17:18:20.103Z,14.10
2019-05-12T17:20:54.551Z,14.20
2019-05-12T17:23:27.595Z,14.20
2019-05-12T17:26:03.606Z,14.20
2019-05-12T17:28:35.782Z,14.30
2019-05-12T17:31:09.387Z,14.30
2019-05-12T17:33:42.984Z,14.20
2019-05-12T17:36:18.008Z,14.20
2019-05-12T17:38:56.172Z,14.10
2019-05-12T17:41:25.965Z,14.00
2019-05-12T17:44:01.310Z,14.00
2019-05-12T17:46:37.992Z,14.00
2019-05-12T17:49:07.003Z,14.10
2019-05-12T17:51:40.563Z,14.10
2019-05-12T17:54:21.791Z,14.10
2019-05-12T17:56:48.048Z,14.10
2019-05-12T17:59:27.552Z,14.10
2019-05-12T18:01:57.433Z,14.00
2019-05-12T18:04:30.581Z,13.90
2019-05-12T18:07:04.353Z,13.90
2019-05-12T18:09:37.071Z,13.90
2019-05-12T18:12:10.822Z,13.90
2019-05-12T18:14:51.633Z,13.90
2019-05-12T18:17:18.917Z,13.80
2019-05-12T18:19:58.991Z,13.80
2019-05-12T18:22:26.324Z,13.70
2019-05-12T18:25:00.069Z,13.70
2019-05-12T18:27:43.252Z,13.70
2019-05-12T18:30:08.701Z,13.50
2019-05-12T18:32:42.363Z,13.50
2019-05-12T18:35:16.750Z,13.40
2019-05-12T18:37:51.190Z,13.30
2019-05-12T18:40:27.945Z,13.40
2019-05-12T18:42:58.669Z,13.30
2019-05-12T18:45:34.100Z,13.30
2019-05-12T18:48:08.289Z,13.20
2019-05-12T18:50:39.693Z,13.20
2019-05-12T18:53:14.873Z,13.10
2019-05-12T18:55:47.125Z,13.10
2019-05-12T18:58:29.632Z,13.00
2019-05-12T19:00:55.847Z,13.00
2019-05-12T19:16:37.002Z,12.90
2019-05-12T19:19:18.275Z,12.80
2019-05-12T19:21:46.843Z,12.70
2019-05-12T19:24:20.089Z,12.70
2019-05-12T19:26:54.170Z,12.70
2019-05-12T19:29:29.717Z,12.70
2019-05-12T19:31:59.944Z,12.70
2019-05-12T19:34:37.386Z,12.70
2019-05-12T19:37:08.110Z,12.70
2019-05-12T19:39:41.635Z,12.70
2019-05-12T19:42:17.074Z,12.70
2019-05-12T19:44:48.980Z,12.60
2019-05-12T19:47:33.140Z,12.50
2019-05-12T19:49:59.478Z,12.50
2019-05-12T19:52:30.519Z,12.50
2019-05-12T19:55:05.165Z,12.50
2019-05-12T19:57:39.840Z,12.30
2019-05-12T20:00:13.986Z,12.30
2019-05-12T20:02:47.892Z,12.20
2019-05-12T20:05:23.793Z,12.30
2019-05-12T20:07:56.518Z,12.20
2019-05-12T20:10:30.202Z,12.10
2019-05-12T20:13:03.960Z,12.10
2019-05-12T20:15:41.044Z,12.10
2019-05-12T20:18:11.193Z,12.10
2019-05-12T20:20:44.997Z,12.10
2019-05-12T20:23:18.653Z,12.00
2019-05-12T20:25:53.508Z,12.00
2019-05-12T20:28:25.824Z,11.90
2019-05-12T20:31:01.417Z,11.80
2019-05-12T20:33:34.433Z,11.70
2019-05-12T20:36:07.804Z,11.70
2019-05-12T20:38:41.426Z,11.60
2019-05-12T20:41:20.186Z,11.60
2019-05-12T20:43:48.691Z,11.50
2019-05-12T20:46:25.775Z,11.50
2019-05-12T20:48:56.149Z,11.40
2019-05-12T20:51:30.722Z,11.40
2019-05-12T20:54:05.541Z,11.40
2019-05-12T20:56:38.430Z,11.40
2019-05-12T20:59:13.803Z,11.30
2019-05-12T21:01:45.963Z,11.30
2019-05-12T21:04:22.059Z,11.30
2019-05-12T21:06:54.219Z,11.30
2019-05-12T21:09:27.616Z,11.30
2019-05-12T21:12:02.175Z,11.20
2019-05-12T21:14:35.794Z,11.20
2019-05-12T21:17:14.792Z,11.20
2019-05-12T21:19:55.812Z,11.20
2019-05-12T21:22:16.956Z,11.20
2019-05-12T21:24:50.715Z,11.20
2019-05-12T21:27:24.300Z,11.10
2019-05-12T21:30:00.554Z,11.00
2019-05-12T21:32:33.770Z,10.80
2019-05-12T21:35:18.280Z,10.80
2019-05-12T21:37:45.865Z,10.70
2019-05-12T21:40:14.965Z,10.70
2019-05-12T21:42:46.432Z,10.70
2019-05-12T21:45:25.226Z,10.50
2019-05-12T21:47:55.623Z,10.30
2019-05-12T21:50:32.481Z,10.00
2019-05-12T21:53:04.348Z,9.70
2019-05-12T21:55:36.249Z,9.70
2019-05-12T21:58:12.127Z,9.60
2019-05-12T22:00:44.971Z,9.50
2019-05-12T22:03:17.682Z,9.50
2019-05-12T22:05:55.474Z,9.30
2019-05-12T22:08:26.219Z,9.30
2019-05-12T22:11:00.816Z,9.30
2019-05-12T22:13:33.371Z,9.30
2019-05-12T22:16:07.939Z,9.10
2019-05-12T22:18:43.718Z,9.00
2019-05-12T22:21:16.698Z,8.90
2019-05-12T22:23:51.659Z,8.90
2019-05-12T22:26:23.996Z,8.80
2019-05-12T22:28:57.649Z,8.80
2019-05-12T22:31:33.274Z,8.70
2019-05-12T22:34:05.851Z,8.70
2019-05-12T22:36:45.503Z,8.70
2019-05-12T22:39:14.356Z,8.70
2019-05-12T22:41:48.247Z,8.60
2019-05-12T22:44:24.546Z,8.60
2019-05-12T22:46:56.266Z,8.50
2019-05-12T22:49:30.376Z,8.50
2019-05-12T22:52:06.955Z,8.50
2019-05-12T22:54:40.534Z,8.50
2019-05-12T22:57:13.109Z,8.60
2019-05-12T22:59:45.029Z,8.60
2019-05-12T23:02:27.985Z,8.60
2019-05-12T23:04:55.088Z,8.50
2019-05-12T23:07:29.678Z,8.40
2019-05-12T23:10:06.142Z,8.40
2019-05-12T23:12:34.455Z,8.30
2019-05-12T23:15:08.010Z,8.30
2019-05-12T23:17:45.209Z,8.20
2019-05-12T23:20:15.352Z,8.20
2019-05-12T23:22:49.116Z,8.10
2019-05-12T23:25:24.535Z,8.10
2019-05-12T23:28:00.389Z,8.00
2019-05-12T23:30:30.931Z,8.00
2019-05-12T23:33:04.480Z,8.00
2019-05-12T23:35:39.668Z,8.00
2019-05-12T23:38:18.872Z,7.90
2019-05-12T23:40:45.496Z,7.90
2019-05-12T23:43:19.244Z,7.90
2019-05-12T23:45:53.333Z,7.80
2019-05-12T23:48:26.654Z,7.80
2019-05-12T23:51:00.351Z,7.80
2019-05-12T23:53:34.083Z,7.80
2019-05-12T23:56:07.792Z,7.80
2019-05-12T23:58:43.282Z,7.80
